createdAt,value
2023-03-12T00:00:52.864Z,15.77
2023-03-12T00:03:35.131Z,15.95
2023-03-12T00:06:10.592Z,15.88
2023-03-12T00:08:39.452Z,15.71
2023-03-12T00:11:11.438Z,15.68
2023-03-12T00:13:39.574Z,15.75
2023-03-12T00:16:11.885Z,15.63
2023-03-12T00:18:39.829Z,15.71
2023-03-12T00:21:08.260Z,15.90
2023-03-12T00:23:36.218Z,15.84
2023-03-12T00:26:05.429Z,15.86
2023-03-12T00:28:33.129Z,15.71
2023-03-12T00:31:01.545Z,15.70
2023-03-12T00:33:29.589Z,15.51
2023-03-12T00:36:00.325Z,15.62
2023-03-12T00:38:27.958Z,15.68
2023-03-12T00:40:55.929Z,15.47
2023-03-12T00:43:23.509Z,15.58
2023-03-12T00:45:51.448Z,15.43
2023-03-12T00:48:19.157Z,15.23
2023-03-12T00:50:47.346Z,15.55
2023-03-12T00:53:14.939Z,15.58
2023-03-12T00:55:42.851Z,15.48
2023-03-12T00:58:10.557Z,15.49
2023-03-12T01:00:38.524Z,15.43
2023-03-12T01:03:06.322Z,15.14
2023-03-12T01:05:37.916Z,15.42
2023-03-12T01:08:05.787Z,15.47
2023-03-12T01:10:33.842Z,15.37
2023-03-12T01:13:01.595Z,15.12
2023-03-12T01:15:31.602Z,15.20
2023-03-12T01:17:59.271Z,15.18
2023-03-12T01:20:27.494Z,15.26
2023-03-12T01:22:55.205Z,15.03
2023-03-12T01:25:23.137Z,14.75
2023-03-12T01:27:50.775Z,14.84
2023-03-12T01:30:18.761Z,15.14
2023-03-12T01:32:46.399Z,15.15
2023-03-12T01:35:14.497Z,15.14
2023-03-12T01:37:42.186Z,15.20
2023-03-12T01:40:15.439Z,15.25
2023-03-12T01:42:43.193Z,15.27
2023-03-12T01:45:29.767Z,15.14
2023-03-12T01:47:57.414Z,15.14
2023-03-12T01:50:25.572Z,14.91
2023-03-12T01:52:53.392Z,14.99
2023-03-12T01:55:21.561Z,14.86
2023-03-12T01:57:50.452Z,14.87
2023-03-12T02:00:20.581Z,14.83
2023-03-12T02:02:49.970Z,14.80
2023-03-12T02:05:43.792Z,14.69
2023-03-12T02:08:12.547Z,14.68
2023-03-12T02:10:40.791Z,14.56
2023-03-12T02:13:08.469Z,14.76
2023-03-12T02:15:36.719Z,14.82
2023-03-12T02:18:05.372Z,14.62
2023-03-12T02:20:52.967Z,14.61
2023-03-12T02:23:31.324Z,14.62
2023-03-12T02:26:01.661Z,14.47
2023-03-12T02:28:30.119Z,14.44
2023-03-12T02:30:59.642Z,14.40
2023-03-12T02:33:27.781Z,14.33
2023-03-12T02:35:55.976Z,14.36
2023-03-12T02:38:33.613Z,14.55
2023-03-12T02:41:05.104Z,14.36
2023-03-12T02:43:32.826Z,14.22
2023-03-12T02:46:00.808Z,14.57
2023-03-12T02:48:28.655Z,14.59
2023-03-12T02:50:56.563Z,14.76
2023-03-12T02:53:24.115Z,14.60
2023-03-12T02:55:51.983Z,14.53
2023-03-12T02:58:19.813Z,14.74
2023-03-12T03:00:49.551Z,14.56
2023-03-12T03:03:17.294Z,14.52
2023-03-12T03:05:45.486Z,14.39
2023-03-12T03:08:13.164Z,14.45
2023-03-12T03:10:41.193Z,14.28
2023-03-12T03:13:08.944Z,14.37
2023-03-12T03:15:39.158Z,14.39
2023-03-12T03:18:07.180Z,14.41
2023-03-12T03:20:35.227Z,14.20
2023-03-12T03:23:02.967Z,14.37
2023-03-12T03:25:30.888Z,14.35
2023-03-12T03:27:58.667Z,14.53
2023-03-12T03:30:26.561Z,14.66
2023-03-12T03:32:55.321Z,14.47
2023-03-12T03:35:24.481Z,14.38
2023-03-12T03:37:52.543Z,14.36
2023-03-12T03:40:20.464Z,14.43
2023-03-12T03:42:48.516Z,14.40
2023-03-12T03:45:16.432Z,14.35
2023-03-12T03:47:45.095Z,14.45
2023-03-12T03:50:13.618Z,14.48
2023-03-12T03:52:41.180Z,14.61
2023-03-12T03:55:09.962Z,14.41
2023-03-12T03:57:37.585Z,14.52
2023-03-12T04:00:10.066Z,14.39
2023-03-12T04:02:45.704Z,14.21
2023-03-12T04:05:19.709Z,14.44
2023-03-12T04:07:49.025Z,14.35
2023-03-12T04:10:22.046Z,14.41
2023-03-12T04:12:49.862Z,14.36
2023-03-12T04:15:18.134Z,14.15
2023-03-12T04:17:46.309Z,14.48
2023-03-12T04:20:14.581Z,14.37
2023-03-12T04:22:43.054Z,14.23
2023-03-12T04:25:12.246Z,14.30
2023-03-12T04:27:40.220Z,14.21
2023-03-12T04:30:08.911Z,14.07
2023-03-12T04:32:38.975Z,14.19
2023-03-12T04:35:07.275Z,14.21
2023-03-12T04:37:35.199Z,14.37
2023-03-12T04:40:06.829Z,14.42
2023-03-12T04:42:35.567Z,14.13
2023-03-12T04:45:05.567Z,14.23
2023-03-12T04:47:34.459Z,14.42
2023-03-12T04:50:02.466Z,14.12
2023-03-12T04:52:31.416Z,14.21
2023-03-12T04:55:02.328Z,14.09
2023-03-12T04:57:30.463Z,14.16
2023-03-12T04:59:58.738Z,14.10
2023-03-12T05:02:26.449Z,14.09
2023-03-12T05:04:56.367Z,14.21
2023-03-12T05:07:24.660Z,14.26
2023-03-12T05:09:52.773Z,14.23
2023-03-12T05:12:20.301Z,14.15
2023-03-12T05:14:48.404Z,14.02
2023-03-12T05:17:16.163Z,13.91
2023-03-12T05:19:44.001Z,14.07
2023-03-12T05:22:11.609Z,14.02
2023-03-12T05:24:39.596Z,13.73
2023-03-12T05:27:08.727Z,13.87
2023-03-12T05:29:36.944Z,13.88
2023-03-12T05:32:05.040Z,14.09
2023-03-12T05:34:33.739Z,13.92
2023-03-12T05:37:02.161Z,13.94
2023-03-12T05:39:38.439Z,14.05
2023-03-12T05:42:06.629Z,14.10
2023-03-12T05:44:35.689Z,14.09
2023-03-12T05:47:03.799Z,13.92
2023-03-12T05:49:31.756Z,13.97
2023-03-12T05:51:59.719Z,13.89
2023-03-12T05:54:27.650Z,13.62
2023-03-12T05:56:56.458Z,13.51
2023-03-12T05:59:26.235Z,13.87
2023-03-12T06:01:54.962Z,14.01
2023-03-12T06:04:23.030Z,13.65
2023-03-12T06:06:52.332Z,13.80
2023-03-12T06:09:20.141Z,13.70
2023-03-12T06:11:47.697Z,13.60
2023-03-12T06:14:15.652Z,13.53
2023-03-12T06:16:43.305Z,13.89
2023-03-12T06:19:14.554Z,13.91
2023-03-12T06:21:44.985Z,13.89
2023-03-12T06:24:13.528Z,13.98
2023-03-12T06:26:48.431Z,13.95
2023-03-12T06:29:16.300Z,13.88
2023-03-12T06:31:44.273Z,13.72
2023-03-12T06:34:12.220Z,14.19
2023-03-12T06:36:39.921Z,13.84
2023-03-12T06:39:09.990Z,14.16
2023-03-12T06:41:38.224Z,14.17
2023-03-12T06:44:06.547Z,14.44
2023-03-12T06:46:34.708Z,14.46
2023-03-12T06:49:02.800Z,14.37
2023-03-12T06:51:30.470Z,14.16
2023-03-12T06:54:01.181Z,14.39
2023-03-12T06:56:29.896Z,14.37
2023-03-12T06:58:57.773Z,14.67
2023-03-12T07:01:25.547Z,14.78
2023-03-12T07:03:53.795Z,14.86
2023-03-12T07:06:22.485Z,14.77
2023-03-12T07:08:50.668Z,14.77
2023-03-12T07:11:18.707Z,14.56
2023-03-12T07:13:46.830Z,14.65
2023-03-12T07:16:15.015Z,14.76
2023-03-12T07:18:43.303Z,14.83
2023-03-12T07:21:10.947Z,14.84
2023-03-12T07:23:39.102Z,15.22
2023-03-12T07:26:07.062Z,15.49
2023-03-12T07:28:34.965Z,15.38
2023-03-12T07:31:03.764Z,15.62
2023-03-12T07:33:32.398Z,15.53
2023-03-12T07:36:00.674Z,15.73
2023-03-12T07:38:28.872Z,15.55
2023-03-12T07:40:57.444Z,16.01
2023-03-12T07:43:25.735Z,15.96
2023-03-12T07:45:55.488Z,15.50
2023-03-12T07:48:23.712Z,15.98
2023-03-12T07:50:52.184Z,15.70
2023-03-12T07:53:20.565Z,15.48
2023-03-12T07:55:48.579Z,16.13
2023-03-12T07:58:17.377Z,16.23
2023-03-12T08:00:45.473Z,16.22
2023-03-12T08:03:14.171Z,16.13
2023-03-12T08:05:41.999Z,16.02
2023-03-12T08:08:10.262Z,16.45
2023-03-12T08:10:38.095Z,16.61
2023-03-12T08:13:06.674Z,16.80
2023-03-12T08:15:34.362Z,16.34
2023-03-12T08:18:02.325Z,16.74
2023-03-12T08:20:30.522Z,16.76
2023-03-12T08:22:58.403Z,16.83
2023-03-12T08:25:26.919Z,16.83
2023-03-12T08:27:55.554Z,16.28
2023-03-12T08:30:23.061Z,16.71
2023-03-12T08:32:51.404Z,17.12
2023-03-12T08:35:19.365Z,17.21
2023-03-12T08:37:47.380Z,17.42
2023-03-12T08:40:16.839Z,16.83
2023-03-12T08:42:46.091Z,17.25
2023-03-12T08:45:14.522Z,17.39
2023-03-12T08:47:43.672Z,17.29
2023-03-12T08:50:12.554Z,17.59
2023-03-12T08:52:40.804Z,16.91
2023-03-12T08:55:08.676Z,16.86
2023-03-12T08:57:36.807Z,16.93
2023-03-12T09:00:11.804Z,17.18
2023-03-12T09:02:39.799Z,17.44
2023-03-12T09:05:07.738Z,17.77
2023-03-12T09:07:36.016Z,17.57
2023-03-12T09:10:04.046Z,18.06
2023-03-12T09:12:32.308Z,18.39
2023-03-12T09:15:04.632Z,18.54
2023-03-12T09:17:33.011Z,17.86
2023-03-12T09:20:01.055Z,18.33
2023-03-12T09:22:30.491Z,18.08
2023-03-12T09:24:58.289Z,18.45
2023-03-12T09:27:26.220Z,18.86
2023-03-12T09:30:00.194Z,19.59
2023-03-12T09:32:29.454Z,18.73
2023-03-12T09:34:57.090Z,18.30
2023-03-12T09:37:25.231Z,19.00
2023-03-12T09:39:53.441Z,18.50
2023-03-12T09:42:36.314Z,17.99
2023-03-12T09:45:05.968Z,17.42
2023-03-12T09:47:43.751Z,17.10
2023-03-12T09:50:21.756Z,17.95
2023-03-12T09:53:01.668Z,18.43
2023-03-12T09:55:35.552Z,19.14
2023-03-12T09:58:03.891Z,19.46
2023-03-12T10:00:33.031Z,20.09
2023-03-12T10:03:13.112Z,19.65
2023-03-12T10:05:40.674Z,18.51
2023-03-12T10:08:28.096Z,18.37
2023-03-12T10:11:01.583Z,18.24
2023-03-12T10:13:29.422Z,18.91
2023-03-12T10:16:03.732Z,19.44
2023-03-12T10:18:54.632Z,18.51
2023-03-12T10:21:22.330Z,18.90
2023-03-12T10:23:59.064Z,18.37
2023-03-12T10:26:32.266Z,18.35
2023-03-12T10:29:18.403Z,18.24
2023-03-12T10:32:12.309Z,20.13
2023-03-12T10:34:46.442Z,20.51
2023-03-12T10:37:21.283Z,20.90
2023-03-12T10:39:49.411Z,20.04
2023-03-12T10:42:21.533Z,19.40
2023-03-12T10:44:52.301Z,19.10
2023-03-12T10:47:29.060Z,19.62
2023-03-12T10:50:11.614Z,20.13
2023-03-12T10:52:39.141Z,21.72
2023-03-12T10:55:16.342Z,21.50
2023-03-12T10:57:43.822Z,22.44
2023-03-12T11:00:17.990Z,21.94
2023-03-12T11:02:46.490Z,20.53
2023-03-12T11:05:20.710Z,20.89
2023-03-12T11:07:48.642Z,21.41
2023-03-12T11:10:21.200Z,20.75
2023-03-12T11:13:18.001Z,21.63
2023-03-12T11:15:46.015Z,22.28
2023-03-12T11:18:25.609Z,22.99
2023-03-12T11:20:58.330Z,20.40
2023-03-12T11:23:31.187Z,20.52
2023-03-12T11:26:01.910Z,19.66
2023-03-12T11:28:40.799Z,19.65
2023-03-12T11:31:11.499Z,21.01
2023-03-12T11:33:39.234Z,21.50
2023-03-12T11:36:18.782Z,22.38
2023-03-12T11:38:55.721Z,21.68
2023-03-12T11:41:27.929Z,21.85
2023-03-12T11:44:14.141Z,21.06
2023-03-12T11:46:54.187Z,21.52
2023-03-12T11:49:34.176Z,22.35
2023-03-12T11:52:02.218Z,23.09
2023-03-12T11:54:38.694Z,21.78
2023-03-12T11:57:09.644Z,21.45
2023-03-12T11:59:49.273Z,20.96
2023-03-12T12:02:20.593Z,20.75
2023-03-12T12:05:07.793Z,21.28
2023-03-12T12:07:52.662Z,22.46
2023-03-12T12:10:38.742Z,23.55
2023-03-12T12:13:11.156Z,21.00
2023-03-12T12:15:44.444Z,20.91
2023-03-12T12:18:15.494Z,21.78
2023-03-12T12:20:52.643Z,23.16
2023-03-12T12:23:23.512Z,24.24
2023-03-12T12:25:53.882Z,24.80
2023-03-12T12:28:28.154Z,24.72
2023-03-12T12:30:55.862Z,24.72
2023-03-12T12:33:35.628Z,24.78
2023-03-12T12:36:03.809Z,24.58
2023-03-12T12:38:34.572Z,24.69
2023-03-12T12:41:14.172Z,24.98
2023-03-12T12:43:44.067Z,25.47
2023-03-12T12:46:20.020Z,23.74
2023-03-12T12:48:54.052Z,24.22
2023-03-12T12:51:23.621Z,23.51
2023-03-12T12:53:56.492Z,25.03
2023-03-12T12:56:23.956Z,24.63
2023-03-12T12:58:51.806Z,24.40
2023-03-12T13:01:20.135Z,24.87
2023-03-12T13:03:49.916Z,24.25
2023-03-12T13:06:18.087Z,23.39
2023-03-12T13:08:46.324Z,25.12
2023-03-12T13:11:20.412Z,25.37
2023-03-12T13:13:51.469Z,24.84
2023-03-12T13:16:35.925Z,23.76
2023-03-12T13:19:16.313Z,24.05
2023-03-12T13:21:46.933Z,24.10
2023-03-12T13:24:31.958Z,23.65
2023-03-12T13:27:05.329Z,22.49
2023-03-12T13:29:33.690Z,22.14
2023-03-12T13:32:05.145Z,22.77
2023-03-12T13:34:43.309Z,24.62
2023-03-12T13:37:27.299Z,24.81
2023-03-12T13:39:55.430Z,24.09
2023-03-12T13:42:23.162Z,23.85
2023-03-12T13:44:52.130Z,24.09
2023-03-12T13:47:23.571Z,25.29
2023-03-12T13:49:57.119Z,24.86
2023-03-12T13:52:32.633Z,23.63
2023-03-12T13:55:08.509Z,23.31
2023-03-12T13:57:43.787Z,23.33
2023-03-12T14:00:15.933Z,24.63
2023-03-12T14:02:47.893Z,24.27
2023-03-12T14:05:17.294Z,23.30
2023-03-12T14:07:47.825Z,23.79
2023-03-12T14:10:27.735Z,24.31
2023-03-12T14:12:55.609Z,24.26
2023-03-12T14:15:26.746Z,24.22
2023-03-12T14:18:00.545Z,24.05
2023-03-12T14:20:38.944Z,24.19
2023-03-12T14:23:09.465Z,25.42
2023-03-12T14:25:39.478Z,25.44
2023-03-12T14:28:26.085Z,24.66
2023-03-12T14:31:05.493Z,23.47
2023-03-12T14:33:44.157Z,23.37
2023-03-12T14:36:21.016Z,23.32
2023-03-12T14:38:49.504Z,23.92
2023-03-12T14:41:21.347Z,24.52
2023-03-12T14:43:51.905Z,24.20
2023-03-12T14:46:21.080Z,24.23
2023-03-12T14:48:50.101Z,24.16
2023-03-12T14:51:24.218Z,25.02
2023-03-12T14:53:53.395Z,27.45
2023-03-12T14:56:35.514Z,26.33
2023-03-12T14:59:20.679Z,28.08
2023-03-12T15:01:48.917Z,28.50
2023-03-12T15:04:20.000Z,29.91
2023-03-12T15:06:49.572Z,30.79
2023-03-12T15:09:20.023Z,27.69
2023-03-12T15:11:58.191Z,28.09
2023-03-12T15:14:29.019Z,29.99
2023-03-12T15:16:59.400Z,30.42
2023-03-12T15:19:32.852Z,31.90
2023-03-12T15:22:01.028Z,31.96
2023-03-12T15:24:34.598Z,29.69
2023-03-12T15:27:19.169Z,30.41
2023-03-12T15:29:47.405Z,29.08
2023-03-12T15:32:16.014Z,26.62
2023-03-12T15:34:44.529Z,24.96
2023-03-12T15:37:41.146Z,24.46
2023-03-12T15:40:24.365Z,24.83
2023-03-12T15:42:54.842Z,25.15
2023-03-12T15:45:28.509Z,24.97
2023-03-12T15:47:56.362Z,25.32
2023-03-12T15:50:30.342Z,24.40
2023-03-12T15:53:25.771Z,23.91
2023-03-12T15:55:57.339Z,24.13
2023-03-12T15:58:32.030Z,24.14
2023-03-12T16:01:10.621Z,23.04
2023-03-12T16:03:39.231Z,23.66
2023-03-12T16:06:15.143Z,23.28
2023-03-12T16:08:47.591Z,23.64
2023-03-12T16:11:20.199Z,23.69
2023-03-12T16:13:49.032Z,23.69
2023-03-12T16:16:17.266Z,23.58
2023-03-12T16:18:44.984Z,22.48
2023-03-12T16:21:13.231Z,22.11
2023-03-12T16:23:40.886Z,21.68
2023-03-12T16:26:08.898Z,21.32
2023-03-12T16:28:36.792Z,21.60
2023-03-12T16:31:10.618Z,21.56
2023-03-12T16:33:38.344Z,20.47
2023-03-12T16:36:16.810Z,21.16
2023-03-12T16:38:44.490Z,21.35
2023-03-12T16:41:19.831Z,21.37
2023-03-12T16:43:50.331Z,20.86
2023-03-12T16:46:20.398Z,20.59
2023-03-12T16:48:52.944Z,20.49
2023-03-12T16:51:21.149Z,20.39
2023-03-12T16:53:58.532Z,20.70
2023-03-12T16:56:34.963Z,20.61
2023-03-12T16:59:07.342Z,20.44
2023-03-12T17:01:36.058Z,19.85
2023-03-12T17:04:05.087Z,20.30
2023-03-12T17:06:33.189Z,20.15
2023-03-12T17:09:01.584Z,20.14
2023-03-12T17:11:33.233Z,19.90
2023-03-12T17:14:02.389Z,19.73
2023-03-12T17:16:30.250Z,19.53
2023-03-12T17:18:58.106Z,19.26
2023-03-12T17:21:25.963Z,18.90
2023-03-12T17:23:53.609Z,18.78
2023-03-12T17:26:21.562Z,19.07
2023-03-12T17:28:49.087Z,18.80
2023-03-12T17:31:17.352Z,18.89
2023-03-12T17:33:45.327Z,18.83
2023-03-12T17:36:13.299Z,18.77
2023-03-12T17:38:41.075Z,18.94
2023-03-12T17:41:25.133Z,18.68
2023-03-12T17:43:55.019Z,18.50
2023-03-12T17:46:23.057Z,18.61
2023-03-12T17:48:50.641Z,18.57
2023-03-12T17:51:18.676Z,18.65
2023-03-12T17:53:46.441Z,18.59
2023-03-12T17:56:18.040Z,18.55
2023-03-12T17:58:46.040Z,18.53
2023-03-12T18:01:14.313Z,18.49
2023-03-12T18:03:44.126Z,18.54
2023-03-12T18:06:12.320Z,18.49
2023-03-12T18:08:40.037Z,18.42
2023-03-12T18:11:08.150Z,18.38
2023-03-12T18:13:35.710Z,18.35
2023-03-12T18:16:03.711Z,18.18
2023-03-12T18:18:31.401Z,17.95
2023-03-12T18:20:59.229Z,18.02
2023-03-12T18:23:27.977Z,17.93
2023-03-12T18:25:55.947Z,17.96
2023-03-12T18:28:24.245Z,17.84
2023-03-12T18:30:53.638Z,17.81
2023-03-12T18:33:21.211Z,17.72
2023-03-12T18:35:49.726Z,17.76
2023-03-12T18:38:17.352Z,17.54
2023-03-12T18:40:45.964Z,17.55
2023-03-12T18:43:14.336Z,17.52
2023-03-12T18:45:43.958Z,17.63
2023-03-12T18:48:11.574Z,17.50
2023-03-12T18:50:39.613Z,17.45
2023-03-12T18:53:07.136Z,17.46
2023-03-12T18:55:35.264Z,17.47
2023-03-12T18:58:02.929Z,17.50
2023-03-12T19:00:31.863Z,17.50
2023-03-12T19:02:59.471Z,17.27
2023-03-12T19:05:27.557Z,17.38
2023-03-12T19:07:55.027Z,17.44
2023-03-12T19:10:22.893Z,17.21
2023-03-12T19:12:53.388Z,17.37
2023-03-12T19:15:22.577Z,17.19
2023-03-12T19:17:50.805Z,17.10
2023-03-12T19:20:18.788Z,16.96
2023-03-12T19:22:46.278Z,16.90
2023-03-12T19:25:14.454Z,16.87
2023-03-12T19:27:42.035Z,16.90
2023-03-12T19:30:10.302Z,17.08
2023-03-12T19:32:43.801Z,16.92
2023-03-12T19:35:13.865Z,16.90
2023-03-12T19:37:41.846Z,17.11
2023-03-12T19:40:10.949Z,16.83
2023-03-12T19:42:38.696Z,17.02
2023-03-12T19:45:07.106Z,17.00
2023-03-12T19:47:34.661Z,16.83
2023-03-12T19:50:03.189Z,16.94
2023-03-12T19:52:30.803Z,16.85
2023-03-12T19:55:04.629Z,16.78
2023-03-12T19:57:33.519Z,16.50
2023-03-12T20:00:01.442Z,16.61
2023-03-12T20:02:32.070Z,16.64
2023-03-12T20:04:59.940Z,16.48
2023-03-12T20:07:27.472Z,16.55
2023-03-12T20:09:55.322Z,16.55
2023-03-12T20:12:22.934Z,16.53
2023-03-12T20:14:51.254Z,16.30
2023-03-12T20:17:19.031Z,16.31
2023-03-12T20:19:46.914Z,16.29
2023-03-12T20:22:15.580Z,16.35
2023-03-12T20:24:44.819Z,16.25
2023-03-12T20:27:12.568Z,16.15
2023-03-12T20:29:41.027Z,16.38
2023-03-12T20:32:08.593Z,16.19
2023-03-12T20:34:37.992Z,16.18
2023-03-12T20:37:07.337Z,16.12
2023-03-12T20:39:36.979Z,15.86
2023-03-12T20:42:05.146Z,15.98
2023-03-12T20:44:33.388Z,15.92
2023-03-12T20:47:01.502Z,15.86
2023-03-12T20:49:29.559Z,16.08
2023-03-12T20:51:57.175Z,15.98
2023-03-12T20:54:25.122Z,15.94
2023-03-12T20:56:53.656Z,15.91
2023-03-12T20:59:23.702Z,15.82
2023-03-12T21:01:52.992Z,15.81
2023-03-12T21:04:22.016Z,15.69
2023-03-12T21:06:53.056Z,15.88
2023-03-12T21:09:22.755Z,15.78
2023-03-12T21:11:50.734Z,15.77
2023-03-12T21:14:22.273Z,15.52
2023-03-12T21:16:49.822Z,15.61
2023-03-12T21:19:17.810Z,15.57
2023-03-12T21:21:45.678Z,15.54
2023-03-12T21:24:14.149Z,15.52
2023-03-12T21:26:41.775Z,15.64
2023-03-12T21:29:09.691Z,15.39
2023-03-12T21:31:37.208Z,15.44
2023-03-12T21:34:05.251Z,15.33
2023-03-12T21:36:33.403Z,15.53
2023-03-12T21:39:02.135Z,15.35
2023-03-12T21:41:29.773Z,15.33
2023-03-12T21:44:00.528Z,15.36
2023-03-12T21:46:30.196Z,15.30
2023-03-12T21:48:59.038Z,15.24
2023-03-12T21:51:26.854Z,15.44
2023-03-12T21:53:58.305Z,15.26
2023-03-12T21:56:30.506Z,15.18
2023-03-12T21:58:58.649Z,15.35
2023-03-12T22:01:26.276Z,15.40
2023-03-12T22:03:54.324Z,15.49
2023-03-12T22:06:22.402Z,15.36
2023-03-12T22:08:50.291Z,15.30
2023-03-12T22:11:18.280Z,15.03
2023-03-12T22:13:46.173Z,15.06
2023-03-12T22:16:14.487Z,15.20
2023-03-12T22:18:44.187Z,15.31
2023-03-12T22:21:16.301Z,15.15
2023-03-12T22:23:44.237Z,15.15
2023-03-12T22:26:12.662Z,14.99
2023-03-12T22:28:40.624Z,15.15
2023-03-12T22:31:09.037Z,14.91
2023-03-12T22:33:37.480Z,15.11
2023-03-12T22:36:09.636Z,14.86
2023-03-12T22:38:38.089Z,14.62
2023-03-12T22:41:12.912Z,14.65
2023-03-12T22:43:40.800Z,14.66
2023-03-12T22:46:08.653Z,14.79
2023-03-12T22:48:37.094Z,14.62
2023-03-12T22:51:05.279Z,14.29
2023-03-12T22:53:33.786Z,14.23
2023-03-12T22:56:08.592Z,14.12
2023-03-12T22:58:36.729Z,14.35
2023-03-12T23:01:06.191Z,14.55
2023-03-12T23:03:34.999Z,14.47
2023-03-12T23:06:03.227Z,14.23
2023-03-12T23:08:31.118Z,14.18
2023-03-12T23:11:00.857Z,14.19
2023-03-12T23:13:30.447Z,14.20
2023-03-12T23:16:02.917Z,13.90
2023-03-12T23:18:30.859Z,13.96
2023-03-12T23:21:00.033Z,14.08
2023-03-12T23:23:28.418Z,14.16
2023-03-12T23:25:57.176Z,13.71
2023-03-12T23:28:26.485Z,13.66
2023-03-12T23:30:53.997Z,13.68
2023-03-12T23:33:22.033Z,13.90
2023-03-12T23:36:03.720Z,13.71
2023-03-12T23:38:32.008Z,13.43
2023-03-12T23:41:01.217Z,13.34
2023-03-12T23:43:29.198Z,13.21
2023-03-12T23:45:58.659Z,13.40
2023-03-12T23:48:27.967Z,13.58
2023-03-12T23:51:03.057Z,13.43
2023-03-12T23:53:31.327Z,13.45
2023-03-12T23:55:59.766Z,13.55
2023-03-12T23:58:28.009Z,13.53
